Time;durP1;ratioP1;P1;durP2;ratioP2;P2;SDS_P1;SDS_P2;PMS_P1;PMS_P2;Temp;Humidity;BMP_temperature;BMP_pressure;BME280_temperature;BME280_humidity;BME280_pressure;Samples;Min_cycle;Max_cycle;Signal;HPM_P1;HPM_P2
2022/05/16 00:01:58;;;;;;;11.90;7.28;;;;;;;;;;5114765;27;20028;-78
2022/05/16 00:04:24;;;;;;;12.65;6.88;;;;;;;;;;5114571;27;20039;-79
2022/05/16 00:06:50;;;;;;;10.27;6.85;;;;;;;;;;5132307;27;20036;-79
2022/05/16 00:09:16;;;;;;;12.13;6.90;;;;;;;;;;5118009;27;20032;-79
2022/05/16 00:11:42;;;;;;;14.00;7.32;;;;;;;;;;5121321;27;20035;-79
2022/05/16 00:14:08;;;;;;;10.23;6.78;;;;;;;;;;5118893;27;20047;-79
2022/05/16 00:16:34;;;;;;;12.32;6.85;;;;;;;;;;5117929;27;20048;-79
2022/05/16 00:19:00;;;;;;;13.18;6.78;;;;;;;;;;5128495;27;20074;-78
2022/05/16 00:21:26;;;;;;;12.82;7.32;;;;;;;;;;5138062;27;20028;-79
2022/05/16 00:23:52;;;;;;;10.98;6.68;;;;;;;;;;5141579;27;20105;-78
2022/05/16 00:26:18;;;;;;;14.30;7.60;;;;;;;;;;5142573;27;20027;-79
2022/05/16 00:28:44;;;;;;;15.55;7.15;;;;;;;;;;5138825;27;20031;-78
2022/05/16 00:31:10;;;;;;;10.90;6.72;;;;;;;;;;5121724;27;20043;-79
2022/05/16 00:33:36;;;;;;;10.52;6.53;;;;;;;;;;5121201;27;20024;-78
2022/05/16 00:36:03;;;;;;;12.45;7.35;;;;;;;;;;5104421;27;20040;-79
2022/05/16 00:38:29;;;;;;;13.32;6.95;;;;;;;;;;5134659;27;20040;-79
2022/05/16 00:40:57;;;;;;;11.68;6.95;;;;;;;;;;5136642;27;20044;-79
2022/05/16 00:43:40;;;;;;;13.15;7.20;;;;;;;;;;5110134;27;20056;-78
2022/05/16 00:46:06;;;;;;;12.05;7.25;;;;;;;;;;5121452;27;20062;-79
2022/05/16 00:48:32;;;;;;;11.48;6.88;;;;;;;;;;5121574;27;20062;-78
2022/05/16 00:50:59;;;;;;;13.05;7.75;;;;;;;;;;5138275;27;20040;-79
2022/05/16 00:53:25;;;;;;;13.48;6.88;;;;;;;;;;5119965;27;20028;-79
2022/05/16 00:55:51;;;;;;;11.57;7.18;;;;;;;;;;5121230;27;20028;-79
2022/05/16 00:58:17;;;;;;;13.30;6.65;;;;;;;;;;5104226;27;20051;-78
2022/05/16 01:00:44;;;;;;;12.75;7.10;;;;;;;;;;5125068;27;20132;-79
2022/05/16 01:05:57;;;;;;;10.60;6.28;;;;;;;;;;5120894;27;20083;-78
2022/05/16 01:08:25;;;;;;;12.80;7.50;;;;;;;;;;5121250;27;20052;-78
2022/05/16 01:10:52;;;;;;;17.00;7.18;;;;;;;;;;5121913;27;20024;-78
2022/05/16 01:13:18;;;;;;;11.27;6.75;;;;;;;;;;5125760;27;20031;-78
2022/05/16 01:15:46;;;;;;;10.25;6.95;;;;;;;;;;5122384;27;20024;-79
2022/05/16 01:18:14;;;;;;;10.02;7.05;;;;;;;;;;5133663;27;20030;-79
2022/05/16 01:20:52;;;;;;;11.05;6.70;;;;;;;;;;5101324;27;20019;-79
2022/05/16 01:23:20;;;;;;;13.00;7.00;;;;;;;;;;5120270;27;20028;-79
2022/05/16 01:25:46;;;;;;;13.85;7.10;;;;;;;;;;5100784;28;20084;-79
2022/05/16 01:28:17;;;;;;;9.25;6.82;;;;;;;;;;5121424;27;20019;-79
2022/05/16 01:30:46;;;;;;;11.05;6.93;;;;;;;;;;5120632;27;20028;-79
2022/05/16 01:33:13;;;;;;;11.38;6.63;;;;;;;;;;5129199;27;20024;-79
2022/05/16 01:35:39;;;;;;;11.57;6.60;;;;;;;;;;5118742;27;20024;-79
2022/05/16 01:38:23;;;;;;;12.73;6.40;;;;;;;;;;5120654;27;20048;-79
2022/05/16 01:40:49;;;;;;;9.70;6.50;;;;;;;;;;5104361;27;20070;-79
2022/05/16 01:43:15;;;;;;;10.52;6.20;;;;;;;;;;5139350;27;20023;-79
2022/05/16 01:45:43;;;;;;;10.75;6.30;;;;;;;;;;5122552;27;20024;-79
2022/05/16 01:48:09;;;;;;;11.55;6.82;;;;;;;;;;5102518;27;20024;-79
2022/05/16 01:50:35;;;;;;;11.02;6.75;;;;;;;;;;5126516;27;20050;-79
2022/05/16 01:53:02;;;;;;;11.93;6.35;;;;;;;;;;5141008;27;20038;-79
2022/05/16 01:55:28;;;;;;;9.52;6.13;;;;;;;;;;5137995;27;20087;-79
2022/05/16 01:57:54;;;;;;;11.27;6.60;;;;;;;;;;5123709;27;20078;-79
2022/05/16 02:00:20;;;;;;;9.05;6.07;;;;;;;;;;5121633;27;20040;-79
2022/05/16 02:02:46;;;;;;;10.35;6.10;;;;;;;;;;5103125;27;20095;-79
2022/05/16 02:05:16;;;;;;;9.18;5.65;;;;;;;;;;5131497;27;20055;-79
2022/05/16 02:07:43;;;;;;;9.45;5.65;;;;;;;;;;5104170;27;20052;-79
2022/05/16 02:10:10;;;;;;;8.18;5.57;;;;;;;;;;5120050;27;20031;-79
2022/05/16 02:12:36;;;;;;;8.65;5.55;;;;;;;;;;5137240;27;20028;-79
2022/05/16 02:15:04;;;;;;;9.00;5.63;;;;;;;;;;5120935;27;21237;-79
2022/05/16 02:17:30;;;;;;;6.90;5.35;;;;;;;;;;5102403;27;20059;-79
2022/05/16 02:19:56;;;;;;;9.57;5.80;;;;;;;;;;5127432;27;20073;-79
2022/05/16 02:25:07;;;;;;;9.52;5.50;;;;;;;;;;5126992;27;20039;-80
2022/05/16 02:27:34;;;;;;;7.72;5.20;;;;;;;;;;5127123;27;20024;-79
2022/05/16 02:30:00;;;;;;;9.63;5.55;;;;;;;;;;5124048;27;20028;-80
2022/05/16 02:32:26;;;;;;;7.60;4.88;;;;;;;;;;5139376;27;20055;-79
2022/05/16 02:34:52;;;;;;;11.38;5.72;;;;;;;;;;5134945;27;20058;-79
2022/05/16 02:37:18;;;;;;;9.18;5.20;;;;;;;;;;5140150;27;20064;-79
2022/05/16 02:39:45;;;;;;;8.90;4.95;;;;;;;;;;5133789;27;20028;-79
2022/05/16 02:42:11;;;;;;;5.93;4.75;;;;;;;;;;5121059;27;20070;-79
2022/05/16 02:44:38;;;;;;;8.55;5.07;;;;;;;;;;5127274;27;20088;-80
2022/05/16 02:47:05;;;;;;;6.95;5.03;;;;;;;;;;5139814;27;20035;-79
2022/05/16 02:49:31;;;;;;;8.32;4.82;;;;;;;;;;5128568;27;20020;-79
2022/05/16 02:51:57;;;;;;;5.88;4.80;;;;;;;;;;5118531;27;20042;-79
2022/05/16 02:54:24;;;;;;;6.70;4.72;;;;;;;;;;5118351;27;20027;-79
2022/05/16 02:56:50;;;;;;;7.82;4.55;;;;;;;;;;5096417;22;20041;-78
2022/05/16 02:59:17;;;;;;;7.97;4.90;;;;;;;;;;5033850;28;20084;-79
2022/05/16 03:01:43;;;;;;;7.75;4.50;;;;;;;;;;5016328;28;20041;-78
2022/05/16 03:04:09;;;;;;;7.00;4.63;;;;;;;;;;5040775;28;20486;-79
2022/05/16 03:06:35;;;;;;;7.18;4.32;;;;;;;;;;5030385;28;20075;-79
2022/05/16 03:09:01;;;;;;;7.85;4.40;;;;;;;;;;5043215;28;20099;-78
2022/05/16 03:11:27;;;;;;;6.07;4.25;;;;;;;;;;5026325;28;20042;-79
2022/05/16 03:13:53;;;;;;;6.90;4.60;;;;;;;;;;5013915;28;20081;-78
2022/05/16 03:16:19;;;;;;;6.15;4.22;;;;;;;;;;5007808;28;20349;-79
2022/05/16 03:18:45;;;;;;;7.90;4.03;;;;;;;;;;5053260;28;20519;-79
2022/05/16 03:21:12;;;;;;;7.93;4.18;;;;;;;;;;5045342;28;20126;-79
2022/05/16 03:23:38;;;;;;;6.97;4.40;;;;;;;;;;5013676;28;20053;-78
2022/05/16 03:26:04;;;;;;;5.95;4.20;;;;;;;;;;5007401;28;20125;-78
2022/05/16 03:28:30;;;;;;;7.30;4.13;;;;;;;;;;5027986;28;20204;-78
2022/05/16 03:30:57;;;;;;;5.90;3.90;;;;;;;;;;5039257;28;20052;-79
2022/05/16 03:33:24;;;;;;;6.30;3.90;;;;;;;;;;5015473;28;20490;-77
2022/05/16 03:35:55;;;;;;;6.85;4.10;;;;;;;;;;5039135;28;20044;-77
2022/05/16 03:41:08;;;;;;;5.93;3.75;;;;;;;;;;5052529;28;20056;-77
2022/05/16 03:43:36;;;;;;;5.95;4.10;;;;;;;;;;5035017;28;20053;-77
2022/05/16 03:46:02;;;;;;;4.70;3.92;;;;;;;;;;5042976;28;20041;-78
2022/05/16 03:48:28;;;;;;;6.68;3.97;;;;;;;;;;5033579;28;20047;-78
2022/05/16 03:50:54;;;;;;;6.93;3.88;;;;;;;;;;5033673;28;20051;-78
2022/05/16 03:53:20;;;;;;;5.88;3.72;;;;;;;;;;5032801;28;20399;-78
2022/05/16 03:55:46;;;;;;;7.35;4.18;;;;;;;;;;5038116;28;20048;-78
2022/05/16 03:58:13;;;;;;;5.25;3.60;;;;;;;;;;4992670;28;20046;-78
2022/05/16 04:00:39;;;;;;;7.18;3.58;;;;;;;;;;4996148;28;20117;-77
2022/05/16 04:03:05;;;;;;;6.38;3.80;;;;;;;;;;5012150;28;20399;-78
2022/05/16 04:05:31;;;;;;;5.28;3.50;;;;;;;;;;5001390;28;20527;-77
2022/05/16 04:07:57;;;;;;;5.40;3.97;;;;;;;;;;4993228;28;20046;-76
2022/05/16 04:10:23;;;;;;;7.60;3.83;;;;;;;;;;5014240;28;20068;-78
2022/05/16 04:12:50;;;;;;;6.13;3.58;;;;;;;;;;5018952;28;20145;-79
2022/05/16 04:15:16;;;;;;;5.70;3.63;;;;;;;;;;5005227;28;20054;-78
2022/05/16 04:17:43;;;;;;;5.50;3.72;;;;;;;;;;5031211;28;20045;-78
2022/05/16 04:20:10;;;;;;;6.88;3.72;;;;;;;;;;4999151;28;20432;-78
2022/05/16 04:22:37;;;;;;;5.55;3.80;;;;;;;;;;5012788;28;20042;-78
2022/05/16 04:25:03;;;;;;;5.35;3.67;;;;;;;;;;5012713;28;20042;-78
2022/05/16 04:27:29;;;;;;;5.13;3.97;;;;;;;;;;5027037;28;20049;-78
2022/05/16 04:29:55;;;;;;;5.10;3.67;;;;;;;;;;4995104;28;20069;-79
2022/05/16 04:32:21;;;;;;;6.75;3.55;;;;;;;;;;5026713;28;20120;-77
2022/05/16 04:34:47;;;;;;;5.78;3.50;;;;;;;;;;5018188;28;20038;-78
2022/05/16 04:37:13;;;;;;;6.18;3.53;;;;;;;;;;5005385;28;20124;-77
2022/05/16 04:39:39;;;;;;;5.82;3.65;;;;;;;;;;5010043;28;20104;-76
2022/05/16 04:44:50;;;;;;;7.32;4.00;;;;;;;;;;5013944;28;20079;-79
2022/05/16 04:47:16;;;;;;;6.18;3.75;;;;;;;;;;5011393;28;20464;-77
2022/05/16 04:49:43;;;;;;;4.55;3.47;;;;;;;;;;5023408;28;20041;-77
2022/05/16 04:52:11;;;;;;;6.82;3.60;;;;;;;;;;5019644;28;20129;-78
2022/05/16 04:54:37;;;;;;;6.82;3.90;;;;;;;;;;5030414;28;20092;-77
2022/05/16 04:57:03;;;;;;;8.18;4.10;;;;;;;;;;5011808;28;20058;-78
2022/05/16 04:59:29;;;;;;;6.25;3.50;;;;;;;;;;5012505;28;20053;-78
2022/05/16 05:01:55;;;;;;;7.32;4.18;;;;;;;;;;5011815;28;20046;-78
2022/05/16 05:04:21;;;;;;;6.30;3.60;;;;;;;;;;5009482;28;20042;-78
2022/05/16 05:06:48;;;;;;;5.50;3.58;;;;;;;;;;5019404;28;20069;-79
2022/05/16 05:09:14;;;;;;;5.97;3.70;;;;;;;;;;5015920;28;20485;-78
2022/05/16 05:14:34;;;;;;;7.75;3.90;;;;;;;;;;5014495;28;20049;-78
2022/05/16 05:17:01;;;;;;;5.97;3.78;;;;;;;;;;5025452;28;20060;-78
2022/05/16 05:19:27;;;;;;;6.47;3.63;;;;;;;;;;5015548;28;20081;-77
2022/05/16 05:21:53;;;;;;;5.30;3.88;;;;;;;;;;5014860;28;20073;-77
2022/05/16 05:24:19;;;;;;;7.07;4.10;;;;;;;;;;5015231;28;20124;-78
2022/05/16 05:26:47;;;;;;;6.43;3.60;;;;;;;;;;4998176;28;20084;-78
2022/05/16 05:29:13;;;;;;;5.65;3.45;;;;;;;;;;5001887;28;20069;-78
2022/05/16 05:31:41;;;;;;;5.70;3.88;;;;;;;;;;5035493;28;20041;-78
2022/05/16 05:34:08;;;;;;;8.60;3.60;;;;;;;;;;5028054;28;20049;-78
2022/05/16 05:36:35;;;;;;;4.00;3.58;;;;;;;;;;4996309;28;20092;-78
2022/05/16 05:39:02;;;;;;;6.18;4.03;;;;;;;;;;5023695;28;20049;-78
2022/05/16 05:41:28;;;;;;;7.78;3.92;;;;;;;;;;4996016;28;20042;-78
2022/05/16 05:43:54;;;;;;;6.35;3.65;;;;;;;;;;4996237;28;20062;-78
2022/05/16 05:46:21;;;;;;;6.57;3.75;;;;;;;;;;5003110;28;20124;-79
2022/05/16 05:48:47;;;;;;;7.32;3.90;;;;;;;;;;5019769;28;20139;-78
2022/05/16 05:51:14;;;;;;;5.70;3.45;;;;;;;;;;5029893;28;20034;-79
2022/05/16 05:53:41;;;;;;;6.18;3.63;;;;;;;;;;5035535;28;20553;-78
2022/05/16 05:56:07;;;;;;;7.82;3.90;;;;;;;;;;5031153;28;20065;-78
2022/05/16 05:58:34;;;;;;;7.93;4.20;;;;;;;;;;5019181;28;20038;-78
2022/05/16 06:01:01;;;;;;;6.25;3.88;;;;;;;;;;5005460;28;20065;-79
2022/05/16 06:03:27;;;;;;;8.73;3.88;;;;;;;;;;5034801;28;20053;-78
2022/05/16 06:05:54;;;;;;;5.85;4.03;;;;;;;;;;5046863;28;20090;-78
2022/05/16 06:08:20;;;;;;;6.30;4.00;;;;;;;;;;5017181;28;20038;-77
2022/05/16 06:10:47;;;;;;;7.47;4.10;;;;;;;;;;5056803;28;20071;-78
2022/05/16 06:13:14;;;;;;;5.13;4.10;;;;;;;;;;5030569;28;20094;-78
2022/05/16 06:15:40;;;;;;;8.18;4.22;;;;;;;;;;5021172;28;20030;-77
2022/05/16 06:18:06;;;;;;;8.52;4.22;;;;;;;;;;5035104;28;20066;-78
2022/05/16 06:20:32;;;;;;;6.43;3.72;;;;;;;;;;5054718;28;20061;-78
2022/05/16 06:23:01;;;;;;;4.93;3.72;;;;;;;;;;5037385;28;20042;-78
2022/05/16 06:25:42;;;;;;;6.97;4.00;;;;;;;;;;4992494;28;20056;-78
2022/05/16 06:28:10;;;;;;;9.95;4.22;;;;;;;;;;5011372;28;20054;-78
2022/05/16 06:30:36;;;;;;;7.95;4.00;;;;;;;;;;5007059;28;20107;-78
2022/05/16 06:33:04;;;;;;;5.75;3.40;;;;;;;;;;5046294;28;20053;-80
2022/05/16 06:35:30;;;;;;;8.63;4.15;;;;;;;;;;5045408;28;20045;-78
2022/05/16 06:37:56;;;;;;;7.55;3.95;;;;;;;;;;5048764;28;20069;-78
2022/05/16 06:40:23;;;;;;;5.88;3.70;;;;;;;;;;5026024;28;20049;-79
2022/05/16 06:42:49;;;;;;;6.20;3.92;;;;;;;;;;5031017;28;20072;-78
2022/05/16 06:45:15;;;;;;;8.18;4.40;;;;;;;;;;5032565;28;20045;-79
2022/05/16 06:47:42;;;;;;;6.75;4.22;;;;;;;;;;5030459;28;20042;-78
2022/05/16 06:50:08;;;;;;;8.88;4.00;;;;;;;;;;5015100;28;20050;-78
2022/05/16 06:52:34;;;;;;;8.13;4.10;;;;;;;;;;5040868;28;20049;-78
2022/05/16 06:55:01;;;;;;;7.38;4.78;;;;;;;;;;5046616;28;20058;-78
2022/05/16 06:57:27;;;;;;;8.40;4.15;;;;;;;;;;5012671;28;20059;-79
2022/05/16 06:59:53;;;;;;;6.30;3.92;;;;;;;;;;5006165;28;20041;-79
2022/05/16 07:02:19;;;;;;;6.35;3.88;;;;;;;;;;4981577;28;20050;-79
2022/05/16 07:04:45;;;;;;;8.43;4.50;;;;;;;;;;5006631;28;20042;-78
2022/05/16 07:07:12;;;;;;;8.25;4.07;;;;;;;;;;4984964;28;20116;-81
2022/05/16 07:09:41;;;;;;;7.40;3.80;;;;;;;;;;5011057;28;20574;-79
2022/05/16 07:12:08;;;;;;;9.02;3.80;;;;;;;;;;4997037;28;20042;-78
2022/05/16 07:14:34;;;;;;;8.82;4.13;;;;;;;;;;5002114;28;20046;-80
2022/05/16 07:17:01;;;;;;;8.57;4.07;;;;;;;;;;5017979;28;20072;-80
2022/05/16 07:19:31;;;;;;;9.73;4.20;;;;;;;;;;5015040;28;20030;-79
2022/05/16 07:21:57;;;;;;;5.55;3.90;;;;;;;;;;5016514;28;20034;-78
2022/05/16 07:24:23;;;;;;;9.25;4.18;;;;;;;;;;5017371;28;20046;-78
2022/05/16 07:29:34;;;;;;;8.90;4.07;;;;;;;;;;5016590;28;20027;-77
2022/05/16 07:32:00;;;;;;;8.38;4.18;;;;;;;;;;5015528;28;20088;-77
2022/05/16 07:34:26;;;;;;;7.90;4.10;;;;;;;;;;5016731;28;20078;-74
2022/05/16 07:36:52;;;;;;;8.40;4.05;;;;;;;;;;5030471;28;20041;-76
2022/05/16 07:39:18;;;;;;;7.38;4.28;;;;;;;;;;5019864;28;20030;-74
2022/05/16 07:41:44;;;;;;;7.75;4.30;;;;;;;;;;5016229;28;20050;-81
2022/05/16 07:44:10;;;;;;;7.68;4.35;;;;;;;;;;5001969;28;20069;-75
2022/05/16 07:46:36;;;;;;;11.70;4.25;;;;;;;;;;5017708;28;20042;-78
2022/05/16 07:49:02;;;;;;;8.30;4.32;;;;;;;;;;5017706;28;20046;-81
2022/05/16 07:51:28;;;;;;;6.47;3.78;;;;;;;;;;5011240;28;20023;-78
2022/05/16 07:53:55;;;;;;;8.82;4.30;;;;;;;;;;5017942;28;20100;-78
2022/05/16 07:56:21;;;;;;;9.50;4.20;;;;;;;;;;5018502;28;20093;-77
2022/05/16 07:58:47;;;;;;;7.18;4.05;;;;;;;;;;5030728;28;20046;-80
2022/05/16 08:01:13;;;;;;;8.05;4.25;;;;;;;;;;5037050;28;20030;-81
2022/05/16 08:03:39;;;;;;;8.60;4.22;;;;;;;;;;5038711;28;20040;-80
2022/05/16 08:06:05;;;;;;;8.45;4.75;;;;;;;;;;5036919;28;20045;-81
2022/05/16 08:11:16;;;;;;;7.15;3.80;;;;;;;;;;5038752;28;20054;-80
2022/05/16 08:13:42;;;;;;;9.15;4.15;;;;;;;;;;5038643;28;20042;-81
2022/05/16 08:16:09;;;;;;;11.13;4.50;;;;;;;;;;5037662;28;20046;-82
2022/05/16 08:18:35;;;;;;;6.15;3.92;;;;;;;;;;5037524;28;20034;-81
2022/05/16 08:21:01;;;;;;;6.47;4.13;;;;;;;;;;5020966;28;20086;-78
2022/05/16 08:23:28;;;;;;;12.07;4.15;;;;;;;;;;5038364;28;20034;-77
2022/05/16 08:25:55;;;;;;;8.05;4.40;;;;;;;;;;5038657;28;20026;-77
2022/05/16 08:28:22;;;;;;;8.75;4.20;;;;;;;;;;5038400;28;20026;-78
2022/05/16 08:30:48;;;;;;;9.20;4.40;;;;;;;;;;5031617;28;20038;-80
2022/05/16 08:33:14;;;;;;;7.45;4.57;;;;;;;;;;5036035;28;20049;-82
2022/05/16 08:35:40;;;;;;;7.80;4.20;;;;;;;;;;5037301;28;20053;-76
2022/05/16 08:41:00;;;;;;;9.00;4.47;;;;;;;;;;5038368;28;20065;-80
2022/05/16 08:43:40;;;;;;;7.22;3.95;;;;;;;;;;5021703;28;20069;-82
2022/05/16 08:46:09;;;;;;;9.18;4.50;;;;;;;;;;5005450;28;20041;-82
2022/05/16 08:48:39;;;;;;;7.57;4.38;;;;;;;;;;5023933;28;20065;-82
2022/05/16 08:51:20;;;;;;;9.65;4.20;;;;;;;;;;5024600;28;20106;-82
2022/05/16 08:54:06;;;;;;;9.88;4.25;;;;;;;;;;5042089;28;20084;-82
2022/05/16 08:56:33;;;;;;;11.52;4.38;;;;;;;;;;5041100;28;20041;-82
2022/05/16 08:59:06;;;;;;;8.68;3.60;;;;;;;;;;5041596;28;20081;-81
2022/05/16 09:01:40;;;;;;;6.10;4.18;;;;;;;;;;5024924;28;20050;-82
2022/05/16 09:04:12;;;;;;;9.23;4.20;;;;;;;;;;5041892;28;20029;-82
2022/05/16 09:06:41;;;;;;;12.32;4.13;;;;;;;;;;5040378;28;20049;-83
2022/05/16 09:09:18;;;;;;;7.22;4.10;;;;;;;;;;5041859;28;20025;-80
2022/05/16 09:11:47;;;;;;;7.13;4.18;;;;;;;;;;5041472;28;20034;-80
2022/05/16 09:14:33;;;;;;;7.30;4.10;;;;;;;;;;5041662;28;20026;-80
2022/05/16 09:16:59;;;;;;;;;;;;;;;;;;5023045;28;20049;-80
2022/05/16 09:19:31;;;;;;;8.25;3.95;;;;;;;;;;5039489;28;19917;-79
2022/05/16 09:22:36;;;;;;;9.93;4.30;;;;;;;;;;5041696;28;20029;-79
2022/05/16 09:25:09;;;;;;;7.68;4.20;;;;;;;;;;4961564;29;20088;-77
2022/05/16 09:30:26;;;;;;;7.20;3.92;;;;;;;;;;4957851;28;20044;-80
2022/05/16 09:33:11;;;;;;;6.60;4.25;;;;;;;;;;4960439;29;20023;-81
2022/05/16 09:35:46;;;;;;;9.13;4.13;;;;;;;;;;4945706;28;20043;-82
2022/05/16 09:38:12;;;;;;;9.70;4.27;;;;;;;;;;4958244;28;20039;-81
2022/05/16 09:40:39;;;;;;;7.32;3.83;;;;;;;;;;4961483;28;20046;-77
2022/05/16 09:43:06;;;;;;;7.85;4.30;;;;;;;;;;4946616;29;20090;-81
2022/05/16 09:45:32;;;;;;;6.32;4.07;;;;;;;;;;4962017;29;20094;-79
2022/05/16 09:47:58;;;;;;;7.57;4.00;;;;;;;;;;4961711;28;20039;-80
2022/05/16 09:50:27;;;;;;;6.68;4.40;;;;;;;;;;4961776;28;20099;-80
2022/05/16 09:53:07;;;;;;;7.20;4.43;;;;;;;;;;4961933;28;20034;-78
2022/05/16 09:55:34;;;;;;;9.52;4.00;;;;;;;;;;4997098;28;20037;-80
2022/05/16 09:58:02;;;;;;;6.45;4.18;;;;;;;;;;5020380;28;20054;-80
2022/05/16 10:00:38;;;;;;;8.77;4.03;;;;;;;;;;5020896;28;20050;-81
2022/05/16 10:03:23;;;;;;;8.30;4.45;;;;;;;;;;5019029;28;20026;-82
2022/05/16 10:05:51;;;;;;;8.85;4.25;;;;;;;;;;5021090;28;20022;-81
2022/05/16 10:08:25;;;;;;;6.43;3.97;;;;;;;;;;5021125;28;20087;-81
2022/05/16 10:10:51;;;;;;;9.95;4.40;;;;;;;;;;5019977;28;20050;-80
2022/05/16 10:13:18;;;;;;;7.78;4.25;;;;;;;;;;5016603;28;20074;-81
2022/05/16 10:15:46;;;;;;;6.82;4.22;;;;;;;;;;4990910;28;20046;-80
2022/05/16 10:18:15;;;;;;;8.18;4.00;;;;;;;;;;5008643;28;20046;-81
2022/05/16 10:20:45;;;;;;;8.88;4.25;;;;;;;;;;4992241;28;20132;-79
2022/05/16 10:23:25;;;;;;;10.32;4.50;;;;;;;;;;4987294;28;20058;-78
2022/05/16 10:25:52;;;;;;;11.45;4.70;;;;;;;;;;5006596;28;20046;-77
2022/05/16 10:28:26;;;;;;;11.95;4.80;;;;;;;;;;4993172;28;20047;-78
2022/05/16 10:33:39;;;;;;;12.45;5.15;;;;;;;;;;5004470;28;20454;-78
2022/05/16 10:36:07;;;;;;;9.57;4.32;;;;;;;;;;5024818;28;20053;-78
2022/05/16 10:38:37;;;;;;;10.25;4.10;;;;;;;;;;5013293;28;20074;-78
2022/05/16 10:41:04;;;;;;;5.85;3.67;;;;;;;;;;4999656;28;20041;-79
2022/05/16 10:43:44;;;;;;;12.20;4.50;;;;;;;;;;5014083;28;20168;-82
2022/05/16 10:46:18;;;;;;;9.10;4.45;;;;;;;;;;4984420;28;20043;-78
2022/05/16 10:48:46;;;;;;;6.80;3.83;;;;;;;;;;4985657;28;20059;-79
2022/05/16 10:51:18;;;;;;;8.90;4.45;;;;;;;;;;4980976;28;20051;-80
2022/05/16 10:53:56;;;;;;;9.55;4.22;;;;;;;;;;4988108;28;20057;-78
2022/05/16 10:56:34;;;;;;;8.52;4.55;;;;;;;;;;5021936;28;20073;-78
2022/05/16 10:59:00;;;;;;;9.75;4.50;;;;;;;;;;5023016;28;20068;-78
2022/05/16 11:01:31;;;;;;;8.80;4.28;;;;;;;;;;5028420;28;20049;-79
2022/05/16 11:04:04;;;;;;;9.00;4.50;;;;;;;;;;5010803;28;20056;-78
2022/05/16 11:06:42;;;;;;;7.55;4.40;;;;;;;;;;5029302;28;20054;-78
2022/05/16 11:09:12;;;;;;;8.70;4.50;;;;;;;;;;5025812;28;20038;-79
2022/05/16 11:11:48;;;;;;;9.13;4.10;;;;;;;;;;5029114;28;20042;-79
2022/05/16 11:14:14;;;;;;;;;;;;;;;;;;5023494;28;20060;-81
2022/05/16 11:16:40;;;;;;;10.23;3.90;;;;;;;;;;5028137;28;20345;-78
2022/05/16 11:19:15;;;;;;;8.43;3.90;;;;;;;;;;5047548;28;20049;-78
2022/05/16 11:21:45;;;;;;;7.75;4.20;;;;;;;;;;5044265;28;20045;-79
2022/05/16 11:24:29;;;;;;;7.80;4.22;;;;;;;;;;5031108;28;20038;-81
2022/05/16 11:26:58;;;;;;;7.57;4.28;;;;;;;;;;4989739;28;20092;-83
2022/05/16 11:29:32;;;;;;;6.75;3.75;;;;;;;;;;5002841;28;20042;-77
2022/05/16 11:31:58;;;;;;;8.23;4.07;;;;;;;;;;5033612;28;20057;-78
2022/05/16 11:34:35;;;;;;;7.85;3.95;;;;;;;;;;5019041;28;20042;-78
2022/05/16 11:37:08;;;;;;;9.30;3.97;;;;;;;;;;4999376;28;20057;-78
2022/05/16 11:39:40;;;;;;;6.70;3.83;;;;;;;;;;4998165;28;20042;-78
2022/05/16 11:42:13;;;;;;;7.15;4.07;;;;;;;;;;5015680;28;20052;-78
2022/05/16 11:44:50;;;;;;;6.75;4.32;;;;;;;;;;5015720;28;20046;-77
2022/05/16 11:47:19;;;;;;;9.23;4.07;;;;;;;;;;4999688;28;20548;-79
2022/05/16 11:49:51;;;;;;;8.93;4.07;;;;;;;;;;5019022;28;20057;-79
2022/05/16 11:52:40;;;;;;;7.88;4.25;;;;;;;;;;5031276;28;20045;-79
2022/05/16 12:01:11;;;;;;;9.65;4.13;;;;;;;;;;4997125;28;20042;-79
2022/05/16 12:03:41;;;;;;;5.78;4.18;;;;;;;;;;4972917;28;20066;-79
2022/05/16 12:06:16;;;;;;;9.13;4.60;;;;;;;;;;4995842;28;20027;-80
2022/05/16 12:08:44;;;;;;;9.30;4.35;;;;;;;;;;4966886;28;20074;-76
2022/05/16 12:11:19;;;;;;;7.47;4.50;;;;;;;;;;4984569;28;20171;-77
2022/05/16 12:14:04;;;;;;;8.98;4.93;;;;;;;;;;4989080;28;20063;-78
2022/05/16 12:16:32;;;;;;;7.25;4.90;;;;;;;;;;4990960;28;20051;-78
2022/05/16 12:19:15;;;;;;;8.10;5.03;;;;;;;;;;4993532;28;20054;-78
2022/05/16 12:21:42;;;;;;;8.73;4.53;;;;;;;;;;4993959;28;20051;-78
2022/05/16 12:24:24;;;;;;;8.43;4.78;;;;;;;;;;4994169;28;20049;-78
2022/05/16 12:26:59;;;;;;;11.30;5.05;;;;;;;;;;4976151;28;20078;-85
2022/05/16 12:29:39;;;;;;;9.30;5.00;;;;;;;;;;4950882;28;20054;-82
2022/05/16 12:32:05;;;;;;;10.70;5.30;;;;;;;;;;4977729;28;20115;-77
2022/05/16 12:34:37;;;;;;;11.52;5.50;;;;;;;;;;5008197;28;20046;-78
2022/05/16 12:37:05;;;;;;;11.30;5.28;;;;;;;;;;5037911;28;20046;-77
2022/05/16 12:39:34;;;;;;;9.60;5.30;;;;;;;;;;5038872;28;20046;-78
2022/05/16 12:42:19;;;;;;;10.23;5.20;;;;;;;;;;5038944;28;20110;-77
2022/05/16 12:44:56;;;;;;;9.57;5.93;;;;;;;;;;5032351;28;20042;-77
2022/05/16 12:47:25;;;;;;;9.07;6.53;;;;;;;;;;5036857;28;20029;-78
2022/05/16 12:50:00;;;;;;;8.88;6.13;;;;;;;;;;5020171;28;20042;-87
2022/05/16 12:52:26;;;;;;;14.25;7.10;;;;;;;;;;5015869;28;20109;-77
2022/05/16 12:54:58;;;;;;;13.95;6.85;;;;;;;;;;5030612;28;20057;-77
2022/05/16 12:57:43;;;;;;;13.45;6.00;;;;;;;;;;5033227;28;20054;-78
2022/05/16 13:00:15;;;;;;;11.00;6.82;;;;;;;;;;5016031;28;20046;-78
2022/05/16 13:02:47;;;;;;;12.98;7.18;;;;;;;;;;5036744;28;20053;-77
2022/05/16 13:05:32;;;;;;;13.52;7.28;;;;;;;;;;5035988;28;20102;-78
2022/05/16 13:08:01;;;;;;;10.75;6.93;;;;;;;;;;5035606;28;20046;-76
2022/05/16 13:10:32;;;;;;;18.00;8.70;;;;;;;;;;5034861;28;20053;-79
2022/05/16 13:13:17;;;;;;;14.05;7.40;;;;;;;;;;5027689;28;20050;-76
2022/05/16 13:15:43;;;;;;;10.90;7.88;;;;;;;;;;5027701;28;20069;-77
2022/05/16 13:18:11;;;;;;;11.25;7.05;;;;;;;;;;5028805;28;20100;-76
2022/05/16 13:20:40;;;;;;;11.52;7.57;;;;;;;;;;5010436;28;20050;-76
2022/05/16 13:23:06;;;;;;;10.77;7.63;;;;;;;;;;5026514;28;20390;-77
2022/05/16 13:29:21;;;;;;;14.15;7.97;;;;;;;;;;5026727;28;20060;-79
2022/05/16 13:31:05;;;;;;;13.75;8.32;;;;;;;;;;5026911;28;20089;-77
2022/05/16 13:33:34;;;;;;;14.13;8.43;;;;;;;;;;5028190;28;20045;-77
2022/05/16 13:36:13;;;;;;;11.45;8.18;;;;;;;;;;5028090;28;20052;-77
2022/05/16 13:38:39;;;;;;;12.07;8.60;;;;;;;;;;5029730;28;20095;-77
2022/05/16 13:41:05;;;;;;;15.45;9.75;;;;;;;;;;5011912;28;20100;-77
2022/05/16 13:43:31;;;;;;;15.57;12.18;;;;;;;;;;5027876;28;20034;-77
2022/05/16 13:46:05;;;;;;;16.17;11.75;;;;;;;;;;5016796;28;20138;-78
2022/05/16 13:48:32;;;;;;;14.10;11.65;;;;;;;;;;5033733;28;20116;-77
2022/05/16 13:51:01;;;;;;;15.10;12.95;;;;;;;;;;5024884;28;20555;-77
2022/05/16 13:53:28;;;;;;;13.88;11.35;;;;;;;;;;5013259;28;20069;-77
2022/05/16 13:55:56;;;;;;;14.63;12.10;;;;;;;;;;5013239;28;20056;-77
2022/05/16 13:58:22;;;;;;;14.82;11.75;;;;;;;;;;5028597;28;20046;-77
2022/05/16 14:01:10;;;;;;;13.80;10.57;;;;;;;;;;5017114;28;20048;-77
2022/05/16 14:03:36;;;;;;;14.18;8.07;;;;;;;;;;5033643;28;20061;-77
2022/05/16 14:06:03;;;;;;;12.20;7.85;;;;;;;;;;5034554;28;20038;-78
2022/05/16 14:08:29;;;;;;;12.95;9.50;;;;;;;;;;5038305;28;20075;-79
2022/05/16 14:10:55;;;;;;;13.23;9.30;;;;;;;;;;5038325;28;20029;-82
2022/05/16 14:13:24;;;;;;;16.88;10.00;;;;;;;;;;5036560;28;20061;-78
2022/05/16 14:16:05;;;;;;;17.73;10.60;;;;;;;;;;5038686;28;20132;-79
2022/05/16 14:18:37;;;;;;;15.77;11.88;;;;;;;;;;5038961;28;20127;-86
2022/05/16 14:21:05;;;;;;;14.98;11.10;;;;;;;;;;5030184;28;20034;-80
2022/05/16 14:23:34;;;;;;;15.25;11.57;;;;;;;;;;5058153;28;20057;-80
2022/05/16 14:26:17;;;;;;;12.23;9.95;;;;;;;;;;5021775;28;20054;-80
2022/05/16 14:28:48;;;;;;;12.43;10.65;;;;;;;;;;5001888;28;20026;-79
2022/05/16 14:31:19;;;;;;;14.50;10.27;;;;;;;;;;5032886;28;20026;-79
2022/05/16 14:33:50;;;;;;;11.80;9.85;;;;;;;;;;5046882;28;20041;-80
2022/05/16 14:36:23;;;;;;;14.57;10.40;;;;;;;;;;5035189;28;20038;-80
2022/05/16 14:38:51;;;;;;;12.93;10.20;;;;;;;;;;5038863;28;20053;-81
2022/05/16 14:41:21;;;;;;;14.85;11.02;;;;;;;;;;5020148;28;20046;-80
2022/05/16 14:43:55;;;;;;;15.50;11.43;;;;;;;;;;5034084;28;20025;-80
2022/05/16 14:49:06;;;;;;;14.93;11.95;;;;;;;;;;5012395;28;20049;-80
2022/05/16 14:51:34;;;;;;;17.85;12.45;;;;;;;;;;5038645;28;20054;-80
2022/05/16 14:54:01;;;;;;;15.50;11.73;;;;;;;;;;5041235;28;20030;-80
2022/05/16 14:56:32;;;;;;;18.48;13.80;;;;;;;;;;5001904;28;20110;-80
2022/05/16 14:58:58;;;;;;;15.98;12.23;;;;;;;;;;5038278;28;20094;-80
2022/05/16 15:04:09;;;;;;;15.95;12.02;;;;;;;;;;5031991;28;20037;-79
2022/05/16 15:06:39;;;;;;;15.43;12.40;;;;;;;;;;5012504;28;20045;-80
2022/05/16 15:09:06;;;;;;;20.17;14.27;;;;;;;;;;5020013;28;20084;-81
2022/05/16 15:11:34;;;;;;;18.27;14.60;;;;;;;;;;5021145;28;20037;-81
2022/05/16 15:14:01;;;;;;;22.05;15.40;;;;;;;;;;5019111;28;20073;-81
2022/05/16 15:16:27;;;;;;;19.45;13.32;;;;;;;;;;5032213;28;20041;-81
2022/05/16 15:18:54;;;;;;;17.75;14.18;;;;;;;;;;5014857;28;20030;-83
2022/05/16 15:21:21;;;;;;;17.55;13.38;;;;;;;;;;5017469;28;20038;-82
2022/05/16 15:23:47;;;;;;;18.38;13.52;;;;;;;;;;5018134;28;20034;-82
2022/05/16 15:26:14;;;;;;;18.08;13.98;;;;;;;;;;5032137;28;20034;-82
2022/05/16 15:28:42;;;;;;;17.75;13.95;;;;;;;;;;5037262;28;20043;-81
2022/05/16 15:31:08;;;;;;;19.90;15.18;;;;;;;;;;5037204;28;20033;-81